Flight Track Log - Related Links

Times and Time Zones

All times are in EDT time to prevent confusion due to time zone crossing. See the N72WP flight status page for this flight to view local times or setup timezone preferences in your user account.

Time Position Orientation Groundspeed Altitude Reporting Facility
EDT Latitude Longitude Course Direction KTS MPH feet Rate Location/Type
Mon 02:06:55 PM 32.5450 -87.2864 73° East 168 193 3,100  Level Atlanta Center
Mon 02:07:55 PM 32.5561 -87.2572 66° East 120 138 3,800 750 Climbing Atlanta Center
Mon 02:08:55 PM 32.5633 -87.2281 74° East 95 109 4,600 800 Climbing Atlanta Center
Mon 02:09:55 PM 32.5683 -87.1961 79° East 95 109 5,400 750 Climbing Atlanta Center
Mon 02:10:55 PM 32.5794 -87.1644 67° East 95 109 6,100 750 Climbing Atlanta Center
Mon 02:11:00 PM 32.6386 -87.1065 73° East  Level Estimated
Mon 02:11:55 PM 32.5844 -87.1325 79° East 95 109 6,900  Level Atlanta Center
Mon 02:12:55 PM 32.5936 -87.1008 71° East 95 109 7,700 750 Climbing Atlanta Center
Mon 02:13:55 PM 32.6006 -87.0692 75° East 95 109 8,400 700 Climbing Atlanta Center
Mon 02:14:55 PM 32.6119 -87.0350 68° East 100 115 9,100 300 Climbing Atlanta Center
Mon 02:15:55 PM 32.6214 -86.9858 77° East 116 133 9,000  Descending Atlanta Center
Mon 02:16:55 PM 32.6331 -86.9344 75° East 141 162 9,100 Climbing Atlanta Center
Mon 02:18:00 PM 32.6460 -86.8793 74° East  Level FlightAware Approximate
Mon 02:25:00 PM 32.7294 -86.5224 74° East  Level FlightAware Approximate
Mon 02:26:00 PM 32.7412 -86.4714 75° East  Level FlightAware Approximate
Mon 02:27:00 PM 32.7531 -86.4203 75° East  Level FlightAware Approximate
Mon 02:28:00 PM 32.7649 -86.3692 75° East  Level FlightAware Approximate
Mon 02:29:00 PM 32.7766 -86.3182 75° East  Level FlightAware Approximate
Mon 02:30:00 PM 32.7883 -86.2671 75° East  Level FlightAware Approximate
Mon 02:31:00 PM 32.8001 -86.2160 75° East  Level FlightAware Approximate
Mon 02:31:43 PM 32.8267 -86.1425 75° East 166 191 9,100  Level Atlanta Center
Mon 02:32:00 PM 32.8118 -86.1649 75° East  Level FlightAware Approximate
Mon 02:32:43 PM 32.8400 -86.0883 74° East 166 191 9,100  Level Atlanta Center
Mon 02:33:00 PM 32.8234 -86.1137 75° East  Level FlightAware Approximate
Mon 02:33:43 PM 32.8533 -86.0344 74° East 166 191 9,100  Level Atlanta Center
Mon 02:34:00 PM 32.8351 -86.0626 75° East  Level FlightAware Approximate
Mon 02:34:43 PM 32.8647 -85.9850 75° East 166 191 9,100  Level Atlanta Center
Mon 02:35:00 PM 32.8467 -86.0114 75° East  Level FlightAware Approximate
Mon 02:35:43 PM 32.8781 -85.9286 74° East 166 191 9,100  Level Atlanta Center
Mon 02:36:00 PM 32.8584 -85.9603 75° East  Level FlightAware Approximate
Mon 02:36:43 PM 32.8914 -85.8792 72° East 166 191 9,100  Level Atlanta Center
Mon 02:37:43 PM 32.9025 -85.8253 76° East 166 191 9,100  Level Atlanta Center
Mon 02:38:43 PM 32.9136 -85.7733 76° East 166 191 9,100  Level Atlanta Center
Mon 02:39:43 PM 32.9269 -85.7217 73° East 166 191 9,100  Level Atlanta Center
Mon 02:40:43 PM 32.9403 -85.6700 73° East 166 191 9,100  Level Atlanta Center
Mon 02:41:43 PM 32.9658 -85.6258 55° Northeast 161 185 9,100  Level Atlanta Center
Mon 02:42:43 PM 33.0039 -85.5969 32° Northeast 156 180 9,100  Level Atlanta Center
Mon 02:43:43 PM 33.0478 -85.5728 25° Northeast 162 186 9,100  Level Atlanta Center
Mon 02:44:43 PM 33.0900 -85.5439 30° Northeast 168 193 9,100 -182 Level Atlanta Center
Mon 02:46:28 PM 33.1667 -85.5000 26° Northeast 178 205 8,600 -400 Descending Atlanta TRACON
Mon 02:47:28 PM 33.2000 -85.4500 51° Northeast 184 212 8,000 -550 Descending Atlanta TRACON
Mon 02:48:28 PM 33.2000 -85.4000 90° East 180 207 7,500 -500 Descending Atlanta TRACON
Mon 02:49:28 PM 33.2167 -85.3333 73° East 175 201 7,000 -550 Descending Atlanta TRACON
Mon 02:50:28 PM 33.2333 -85.2833 68° East 168 193 6,400 -474 Descending Atlanta TRACON
Mon 02:51:22 PM 33.2500 -85.2500 59° Northeast 164 189 6,100 -209 Descending Atlanta TRACON
Mon 02:52:23 PM 33.2667 -85.1833 73° East 159 183 6,000  Descending Atlanta TRACON
Mon 02:53:28 PM 33.2833 -85.1333 68° East 153 176 6,100  Climbing Atlanta TRACON
Mon 02:54:28 PM 33.3167 -85.1333 360° North 158 182 6,000 -100 Descending Atlanta TRACON
Mon 02:55:28 PM 33.3667 -85.1167 16° North 160 184 5,900 -300 Descending Atlanta TRACON
Mon 02:56:28 PM 33.4167 -85.1000 16° North 168 193 5,400 -429 Descending Atlanta TRACON
Mon 02:57:34 PM 33.4667 -85.0833 16° North 168 193 5,000 -200 Descending Atlanta TRACON
Mon 02:58:28 PM 33.5000 -85.0667 23° Northeast 159 183 5,000  Level Atlanta TRACON
Mon 02:59:34 PM 33.5500 -85.0500 16° North 163 188 5,000  Level Atlanta TRACON
Mon 03:00:29 PM 33.5833 -85.0500 360° North 162 186 5,000  Level Atlanta TRACON
Mon 03:01:28 PM 33.6333 -85.0333 16° North 164 189 5,000  Level Atlanta TRACON
Mon 03:02:29 PM 33.6667 -85.0500 337° Northwest 166 191 5,000  Level Atlanta TRACON
Mon 03:03:29 PM 33.7333 -85.0500 360° North 195 224 5,000  Level Atlanta TRACON
Mon 03:04:29 PM 33.7667 -85.0667 337° Northwest 165 190 5,000  Level Atlanta TRACON
Mon 03:05:29 PM 33.8000 -85.0333 40° Northeast 160 184 5,000  Level Atlanta TRACON
Mon 03:06:29 PM 33.8167 -84.9833 68° East 159 183 5,000  Level Atlanta TRACON
Mon 03:07:29 PM 33.8333 -84.9333 68° East 157 181 5,000  Level Atlanta TRACON
Mon 03:08:35 PM 33.8500 -84.8833 68° East 165 190 5,000  Level Atlanta TRACON
Mon 03:09:35 PM 33.8500 -84.8167 90° East 160 184 5,000  Level Atlanta TRACON
Mon 03:10:29 PM 33.8500 -84.7833 90° East 154 177 5,000  Level Atlanta TRACON
Mon 03:11:35 PM 33.8500 -84.7167 90° East 162 186 5,000  Level Atlanta TRACON
Mon 03:12:35 PM 33.8500 -84.6667 90° East 156 180 5,000  Level Atlanta TRACON
Mon 03:13:35 PM 33.8667 -84.6167 68° East 154 177 5,000 -450 Level Atlanta TRACON
Mon 03:14:35 PM 33.8667 -84.5667 90° East 162 186 4,100 -842 Descending Atlanta TRACON
Mon 03:15:29 PM 33.8667 -84.5167 90° East 159 183 3,400 -550 Descending Atlanta TRACON
Mon 03:16:35 PM 33.8667 -84.4667 90° East 147 169 3,000 -300 Descending Atlanta TRACON
Mon 03:17:29 PM 33.8667 -84.4167 90° East 150 173 2,800 -368 Descending Atlanta TRACON
Mon 03:18:29 PM 33.8667 -84.3667 90° East 155 178 2,300 -650 Descending Atlanta TRACON
Mon 03:19:29 PM 33.8500 -84.3167 112° Southeast 124 143 1,500 -800 Descending Atlanta TRACON
Mon 03:21:00 PM 33.8667 -84.3000 90° East  Level FlightAware Approximate
Mon 03:28:00 PM 33.8756 -84.3020 90° East  Level Estimated

Login

Don't have an account? Register now (free) for customized features, flight alerts, and more!